createdAt,value
2023-03-17T00:00:43.610Z,4.03
2023-03-17T00:03:22.284Z,4.53
2023-03-17T00:05:49.923Z,3.87
2023-03-17T00:08:37.474Z,4.07
2023-03-17T00:11:04.770Z,4.03
2023-03-17T00:13:32.258Z,3.20
2023-03-17T00:16:04.914Z,3.33
2023-03-17T00:18:33.556Z,3.60
2023-03-17T00:21:00.826Z,3.50
2023-03-17T00:23:28.067Z,2.83
2023-03-17T00:25:55.291Z,2.60
2023-03-17T00:28:27.426Z,3.17
2023-03-17T00:31:01.241Z,2.87
2023-03-17T00:33:30.960Z,3.10
2023-03-17T00:35:59.519Z,3.40
2023-03-17T00:38:26.640Z,4.03
2023-03-17T00:40:54.290Z,4.00
2023-03-17T00:43:22.537Z,3.50
2023-03-17T00:45:49.632Z,3.73
2023-03-17T00:48:22.078Z,3.10
2023-03-17T00:50:50.635Z,3.60
2023-03-17T00:53:21.610Z,3.63
2023-03-17T00:55:49.273Z,3.50
2023-03-17T00:58:33.565Z,3.53
2023-03-17T01:01:01.255Z,3.30
2023-03-17T01:03:28.649Z,3.87
2023-03-17T01:05:59.654Z,3.43
2023-03-17T01:08:28.306Z,3.13
2023-03-17T01:10:56.234Z,3.37
2023-03-17T01:13:23.994Z,3.40
2023-03-17T01:15:52.569Z,3.40
2023-03-17T01:18:23.093Z,3.50
2023-03-17T01:20:51.058Z,3.30
2023-03-17T01:23:18.808Z,3.93
2023-03-17T01:25:46.039Z,3.43
2023-03-17T01:28:18.674Z,3.77
2023-03-17T01:30:47.103Z,3.90
2023-03-17T01:33:14.867Z,3.63
2023-03-17T01:35:43.914Z,3.57
2023-03-17T01:38:11.654Z,3.60
2023-03-17T01:40:45.796Z,4.50
2023-03-17T01:43:33.567Z,4.27
2023-03-17T01:46:31.128Z,4.70
2023-03-17T01:49:40.468Z,4.30
2023-03-17T01:52:15.074Z,4.90
2023-03-17T01:55:02.065Z,4.63
2023-03-17T01:57:37.227Z,4.57
2023-03-17T02:00:19.800Z,5.40
2023-03-17T02:02:50.161Z,5.27
2023-03-17T02:05:21.296Z,5.83
2023-03-17T02:07:49.405Z,4.87
2023-03-17T02:10:20.644Z,4.70
2023-03-17T02:12:53.260Z,4.93
2023-03-17T02:15:20.525Z,4.57
2023-03-17T02:17:47.738Z,5.40
2023-03-17T02:20:58.771Z,5.33
2023-03-17T02:23:26.324Z,5.40
2023-03-17T02:25:54.456Z,5.20
2023-03-17T02:28:28.008Z,5.50
2023-03-17T02:30:55.281Z,5.10
2023-03-17T02:33:22.406Z,5.00
2023-03-17T02:35:49.683Z,5.57
2023-03-17T02:38:17.542Z,5.80
2023-03-17T02:40:44.920Z,5.77
2023-03-17T02:43:12.063Z,4.83
2023-03-17T02:45:39.174Z,5.53
2023-03-17T02:48:07.321Z,5.30
2023-03-17T02:50:34.479Z,5.20
2023-03-17T02:53:01.543Z,4.93
2023-03-17T02:55:28.841Z,4.97
2023-03-17T02:57:56.066Z,5.47
2023-03-17T03:00:23.314Z,5.40
2023-03-17T03:02:50.617Z,4.50
2023-03-17T03:05:18.617Z,5.07
2023-03-17T03:07:45.973Z,5.50
2023-03-17T03:10:13.472Z,5.60
2023-03-17T03:12:40.568Z,5.43
2023-03-17T03:15:09.753Z,5.17
2023-03-17T03:17:36.959Z,4.93
2023-03-17T03:20:04.885Z,5.43
2023-03-17T03:22:32.022Z,5.60
2023-03-17T03:24:59.131Z,4.90
2023-03-17T03:27:26.751Z,6.23
2023-03-17T03:29:53.855Z,5.47
2023-03-17T03:32:20.988Z,5.40
2023-03-17T03:34:48.040Z,5.80
2023-03-17T03:37:15.704Z,5.73
2023-03-17T03:39:42.786Z,5.60
2023-03-17T03:42:10.039Z,5.07
2023-03-17T03:44:37.186Z,5.77
2023-03-17T03:47:04.514Z,6.43
2023-03-17T03:49:31.612Z,6.73
2023-03-17T03:51:58.739Z,5.30
2023-03-17T03:54:25.895Z,6.20
2023-03-17T03:56:52.973Z,6.70
2023-03-17T03:59:20.031Z,5.77
2023-03-17T04:01:47.356Z,6.33
2023-03-17T04:04:14.404Z,6.57
2023-03-17T04:06:42.020Z,6.60
2023-03-17T04:09:09.472Z,6.47
2023-03-17T04:11:36.865Z,6.10
2023-03-17T04:14:04.265Z,7.00
2023-03-17T04:16:31.451Z,6.80
2023-03-17T04:18:58.562Z,6.37
2023-03-17T04:21:25.829Z,6.73
2023-03-17T04:23:52.917Z,6.67
2023-03-17T04:26:20.086Z,6.70
2023-03-17T04:28:47.175Z,6.57
2023-03-17T04:31:14.456Z,7.40
2023-03-17T04:33:41.575Z,6.60
2023-03-17T04:36:17.335Z,6.67
2023-03-17T04:38:44.443Z,7.10
2023-03-17T04:41:12.269Z,6.47
2023-03-17T04:43:39.865Z,7.47
2023-03-17T04:46:07.037Z,7.00
2023-03-17T04:48:34.420Z,6.87
2023-03-17T04:51:01.775Z,7.50
2023-03-17T04:53:28.867Z,7.27
2023-03-17T04:55:56.686Z,7.10
2023-03-17T04:58:30.913Z,6.77
2023-03-17T05:00:59.161Z,7.03
2023-03-17T05:03:28.140Z,7.13
2023-03-17T05:05:58.473Z,7.13
2023-03-17T05:08:26.368Z,7.90
2023-03-17T05:10:53.518Z,7.10
2023-03-17T05:13:20.855Z,6.63
2023-03-17T05:15:49.076Z,7.53
2023-03-17T05:18:16.739Z,6.97
2023-03-17T05:20:44.098Z,7.00
2023-03-17T05:23:11.625Z,7.80
2023-03-17T05:25:40.146Z,7.73
2023-03-17T05:28:07.819Z,8.60
2023-03-17T05:30:36.800Z,8.00
2023-03-17T05:33:04.618Z,7.77
2023-03-17T05:35:32.169Z,7.37
2023-03-17T05:37:59.259Z,7.80
2023-03-17T05:40:26.679Z,7.43
2023-03-17T05:42:54.140Z,8.37
2023-03-17T05:45:21.212Z,7.40
2023-03-17T05:47:48.409Z,7.63
2023-03-17T05:50:15.674Z,8.00
2023-03-17T05:52:43.470Z,7.43
2023-03-17T05:55:10.922Z,7.63
2023-03-17T05:57:38.118Z,7.10
2023-03-17T06:00:05.718Z,8.10
2023-03-17T06:02:33.028Z,7.80
2023-03-17T06:05:00.379Z,7.97
2023-03-17T06:07:33.070Z,7.77
2023-03-17T06:10:06.880Z,6.93
2023-03-17T06:12:34.070Z,7.20
2023-03-17T06:15:01.153Z,7.00
2023-03-17T06:17:28.335Z,7.27
2023-03-17T06:19:55.616Z,7.63
2023-03-17T06:22:22.738Z,6.70
2023-03-17T06:24:50.037Z,7.80
2023-03-17T06:27:17.099Z,7.10
2023-03-17T06:29:44.210Z,7.97
2023-03-17T06:32:20.441Z,7.60
2023-03-17T06:34:48.447Z,7.63
2023-03-17T06:37:16.588Z,6.53
2023-03-17T06:39:43.953Z,7.20
2023-03-17T06:42:11.391Z,6.33
2023-03-17T06:44:38.565Z,6.50
2023-03-17T06:47:06.327Z,6.57
2023-03-17T06:49:33.807Z,6.47
2023-03-17T06:52:00.906Z,6.67
2023-03-17T06:54:29.192Z,7.87
2023-03-17T06:56:56.627Z,7.00
2023-03-17T06:59:23.979Z,7.87
2023-03-17T07:01:52.102Z,8.03
2023-03-17T07:04:19.820Z,7.87
2023-03-17T07:06:46.968Z,7.13
2023-03-17T07:09:15.674Z,7.20
2023-03-17T07:11:42.960Z,7.37
2023-03-17T07:14:10.234Z,7.00
2023-03-17T07:16:37.797Z,7.27
2023-03-17T07:19:05.012Z,6.67
2023-03-17T07:21:32.112Z,6.43
2023-03-17T07:23:59.222Z,7.40
2023-03-17T07:26:26.492Z,7.57
2023-03-17T07:28:53.578Z,7.43
2023-03-17T07:31:20.665Z,8.63
2023-03-17T07:33:47.915Z,7.77
2023-03-17T07:36:15.915Z,7.17
2023-03-17T07:38:43.841Z,7.10
2023-03-17T07:41:11.128Z,6.73
2023-03-17T07:43:38.554Z,6.50
2023-03-17T07:46:06.567Z,6.67
2023-03-17T07:48:36.628Z,6.60
2023-03-17T07:51:04.262Z,6.87
2023-03-17T07:53:31.712Z,6.80
2023-03-17T07:55:58.854Z,7.57
2023-03-17T07:58:25.942Z,6.23
2023-03-17T08:00:53.579Z,6.67
2023-03-17T08:03:20.670Z,6.33
2023-03-17T08:05:57.578Z,6.83
2023-03-17T08:08:25.277Z,7.00
2023-03-17T08:10:52.726Z,6.50
2023-03-17T08:13:20.052Z,7.10
2023-03-17T08:15:47.231Z,7.57
2023-03-17T08:18:14.469Z,7.43
2023-03-17T08:20:42.190Z,6.90
2023-03-17T08:23:09.546Z,7.40
2023-03-17T08:25:37.102Z,7.17
2023-03-17T08:28:04.674Z,7.13
2023-03-17T08:30:33.717Z,7.67
2023-03-17T08:33:01.818Z,6.83
2023-03-17T08:35:29.510Z,7.90
2023-03-17T08:37:57.118Z,7.40
2023-03-17T08:40:24.464Z,7.93
2023-03-17T08:42:51.853Z,8.27
2023-03-17T08:45:19.485Z,7.80
2023-03-17T08:47:47.716Z,7.43
2023-03-17T08:50:18.539Z,7.60
2023-03-17T08:52:46.145Z,7.70
2023-03-17T08:55:14.655Z,8.23
2023-03-17T08:57:43.139Z,7.13
2023-03-17T09:00:12.362Z,7.30
2023-03-17T09:02:43.768Z,7.63
2023-03-17T09:05:16.094Z,8.10
2023-03-17T09:07:43.770Z,8.20
2023-03-17T09:10:12.554Z,6.70
2023-03-17T09:12:39.742Z,8.00
2023-03-17T09:15:07.812Z,6.40
2023-03-17T09:17:35.304Z,6.60
2023-03-17T09:20:02.400Z,5.93
2023-03-17T09:22:29.546Z,6.80
2023-03-17T09:24:56.615Z,6.23
2023-03-17T09:27:24.105Z,6.10
2023-03-17T09:29:51.269Z,6.33
2023-03-17T09:32:18.436Z,5.97
2023-03-17T09:34:46.338Z,6.20
2023-03-17T09:37:13.741Z,5.97
2023-03-17T09:39:41.523Z,5.50
2023-03-17T09:42:36.460Z,5.63
2023-03-17T09:45:32.573Z,5.80
2023-03-17T09:48:17.278Z,5.43
2023-03-17T09:50:57.902Z,5.00
2023-03-17T09:53:48.116Z,5.13
2023-03-17T09:56:18.910Z,5.00
2023-03-17T09:59:20.077Z,4.83
2023-03-17T10:01:48.031Z,4.87
2023-03-17T10:04:17.596Z,4.87
2023-03-17T10:06:47.501Z,5.07
2023-03-17T10:09:52.891Z,5.13
2023-03-17T10:12:45.067Z,4.67
2023-03-17T10:15:28.015Z,5.23
2023-03-17T10:17:55.471Z,4.93
2023-03-17T10:20:30.304Z,5.00
2023-03-17T10:23:04.943Z,4.87
2023-03-17T10:25:34.992Z,5.90
2023-03-17T10:28:31.812Z,5.10
2023-03-17T10:31:20.310Z,5.03
2023-03-17T10:33:50.736Z,5.17
2023-03-17T10:36:31.746Z,5.67
2023-03-17T10:38:58.936Z,5.50
2023-03-17T10:41:27.086Z,5.33
2023-03-17T10:43:54.149Z,5.63
2023-03-17T10:46:24.464Z,5.43
2023-03-17T10:49:02.255Z,5.40
2023-03-17T10:51:36.914Z,4.87
2023-03-17T10:54:11.770Z,4.97
2023-03-17T10:56:42.460Z,5.93
2023-03-17T10:59:27.971Z,5.30
2023-03-17T11:02:00.899Z,4.83
2023-03-17T11:04:41.942Z,4.97
2023-03-17T11:07:21.392Z,5.23
2023-03-17T11:09:57.090Z,4.23
2023-03-17T11:12:39.424Z,5.00
2023-03-17T11:15:12.073Z,4.67
2023-03-17T11:18:17.156Z,5.07
2023-03-17T11:21:11.485Z,5.00
2023-03-17T11:23:53.993Z,4.43
2023-03-17T11:26:56.512Z,4.80
2023-03-17T11:30:06.649Z,4.27
2023-03-17T11:32:44.022Z,4.60
2023-03-17T11:35:47.579Z,4.03
2023-03-17T11:38:24.662Z,4.43
2023-03-17T11:41:42.591Z,4.27
2023-03-17T11:44:59.809Z,4.23
2023-03-17T11:48:19.663Z,4.27
2023-03-17T11:50:56.685Z,3.67
2023-03-17T11:54:05.992Z,4.13
2023-03-17T11:57:01.296Z,3.80
2023-03-17T11:59:45.123Z,3.97
2023-03-17T12:02:43.987Z,3.53
2023-03-17T12:05:21.165Z,3.77
2023-03-17T12:08:01.167Z,3.20
2023-03-17T12:10:41.015Z,3.30
2023-03-17T12:13:46.495Z,3.13
2023-03-17T12:16:27.052Z,3.13
2023-03-17T12:19:30.023Z,3.60
2023-03-17T12:22:08.280Z,3.13
2023-03-17T12:25:04.505Z,3.70
2023-03-17T12:27:44.153Z,2.70
2023-03-17T12:30:23.727Z,3.10
2023-03-17T12:33:21.634Z,3.97
2023-03-17T12:35:48.979Z,3.50
2023-03-17T12:38:43.866Z,3.20
2023-03-17T12:41:54.140Z,2.93
2023-03-17T12:45:00.924Z,3.00
2023-03-17T12:48:20.342Z,3.00
2023-03-17T12:51:38.506Z,3.40
2023-03-17T12:54:32.512Z,2.80
2023-03-17T12:57:17.970Z,2.90
2023-03-17T12:59:47.811Z,3.43
2023-03-17T13:02:37.377Z,3.30
2023-03-17T13:05:16.548Z,2.70
2023-03-17T13:07:53.997Z,3.07
2023-03-17T13:10:51.306Z,3.40
2023-03-17T13:13:55.492Z,3.53
2023-03-17T13:16:49.019Z,2.90
2023-03-17T13:19:19.400Z,2.97
2023-03-17T13:21:52.156Z,3.03
2023-03-17T13:24:36.085Z,2.90
2023-03-17T13:27:04.812Z,2.40
2023-03-17T13:29:43.918Z,2.97
2023-03-17T13:32:38.715Z,2.90
2023-03-17T13:35:18.068Z,2.80
2023-03-17T13:38:13.018Z,2.30
2023-03-17T13:41:22.802Z,2.13
2023-03-17T13:44:35.343Z,2.50
2023-03-17T13:47:27.144Z,2.50
2023-03-17T13:50:00.163Z,2.50
2023-03-17T13:52:38.947Z,2.37
2023-03-17T13:55:42.197Z,2.77
2023-03-17T13:58:22.688Z,2.27
2023-03-17T14:01:00.349Z,2.10
2023-03-17T14:03:55.559Z,2.20
2023-03-17T14:06:28.210Z,2.07
2023-03-17T14:09:00.763Z,2.00
2023-03-17T14:11:37.881Z,2.03
2023-03-17T14:14:53.230Z,1.70
2023-03-17T14:17:28.396Z,1.70
2023-03-17T14:20:24.575Z,1.70
2023-03-17T14:23:00.066Z,1.77
2023-03-17T14:25:34.891Z,2.10
2023-03-17T14:28:06.164Z,1.30
2023-03-17T14:30:34.947Z,1.87
2023-03-17T14:33:35.919Z,1.33
2023-03-17T14:36:08.098Z,1.60
2023-03-17T14:38:37.728Z,1.77
2023-03-17T14:41:18.258Z,1.57
2023-03-17T14:43:46.309Z,1.70
2023-03-17T14:53:46.855Z,2.20
2023-03-17T14:56:14.073Z,2.03
2023-03-17T14:58:43.757Z,1.67
2023-03-17T15:01:20.636Z,1.50
2023-03-17T15:04:20.721Z,1.30
2023-03-17T15:06:53.928Z,1.83
2023-03-17T15:09:38.660Z,1.50
2023-03-17T15:12:15.906Z,1.60
2023-03-17T15:14:47.377Z,1.60
2023-03-17T15:17:37.392Z,1.50
2023-03-17T15:20:07.846Z,1.57
2023-03-17T15:23:05.223Z,1.30
2023-03-17T15:25:39.468Z,2.00
2023-03-17T15:28:18.389Z,2.07
2023-03-17T15:30:48.735Z,1.80
2023-03-17T15:33:34.356Z,1.77
2023-03-17T15:36:01.952Z,1.40
2023-03-17T15:38:29.591Z,1.70
2023-03-17T15:40:57.486Z,1.70
2023-03-17T15:43:24.835Z,3.73
2023-03-17T15:45:57.938Z,1.90
2023-03-17T15:48:31.561Z,1.90
2023-03-17T15:51:01.520Z,1.90
2023-03-17T15:53:29.185Z,2.07
2023-03-17T15:55:56.503Z,2.47
2023-03-17T15:58:23.882Z,1.90
2023-03-17T16:00:54.826Z,1.97
2023-03-17T16:03:29.850Z,1.90
2023-03-17T16:05:57.870Z,1.83
2023-03-17T16:08:25.380Z,1.60
2023-03-17T16:10:52.841Z,2.10
2023-03-17T16:13:20.414Z,1.83
2023-03-17T16:15:56.301Z,1.73
2023-03-17T16:18:33.314Z,2.00
2023-03-17T16:21:03.338Z,2.00
2023-03-17T16:23:34.822Z,2.23
2023-03-17T16:26:14.277Z,2.03
2023-03-17T16:28:42.890Z,2.80
2023-03-17T16:31:18.758Z,2.10
2023-03-17T16:33:46.679Z,1.97
2023-03-17T16:36:18.898Z,2.00
2023-03-17T16:38:46.671Z,2.10
2023-03-17T16:41:23.570Z,2.33
2023-03-17T16:44:00.293Z,2.07
2023-03-17T16:46:34.328Z,2.30
2023-03-17T16:49:02.389Z,2.17
2023-03-17T16:51:29.527Z,2.10
2023-03-17T16:53:56.931Z,2.37
2023-03-17T16:56:25.512Z,2.07
2023-03-17T16:58:53.891Z,2.10
2023-03-17T17:01:24.980Z,2.30
2023-03-17T17:03:52.802Z,1.90
2023-03-17T17:06:21.415Z,2.17
2023-03-17T17:08:51.291Z,2.03
2023-03-17T17:11:19.825Z,2.27
2023-03-17T17:13:48.663Z,2.40
2023-03-17T17:16:37.505Z,2.00
2023-03-17T17:19:16.528Z,1.60
2023-03-17T17:21:44.812Z,2.30
2023-03-17T17:24:13.286Z,2.47
2023-03-17T17:26:41.085Z,1.80
2023-03-17T17:29:08.209Z,2.07
2023-03-17T17:31:35.902Z,2.03
2023-03-17T17:34:03.022Z,2.13
2023-03-17T17:36:31.147Z,2.37
2023-03-17T17:38:58.942Z,2.17
2023-03-17T17:41:26.055Z,2.30
2023-03-17T17:43:54.075Z,2.43
2023-03-17T17:46:23.248Z,2.20
2023-03-17T17:48:50.738Z,2.43
2023-03-17T17:51:18.291Z,2.30
2023-03-17T17:53:45.460Z,2.70
2023-03-17T17:56:15.870Z,2.50
2023-03-17T17:58:43.897Z,2.50
2023-03-17T18:01:13.875Z,2.40
2023-03-17T18:03:43.050Z,2.73
2023-03-17T18:06:10.834Z,2.23
2023-03-17T18:08:38.438Z,2.37
2023-03-17T18:11:06.490Z,2.33
2023-03-17T18:13:37.290Z,2.07
2023-03-17T18:16:05.507Z,2.17
2023-03-17T18:18:32.668Z,2.17
2023-03-17T18:21:01.927Z,2.50
2023-03-17T18:23:30.326Z,2.43
2023-03-17T18:26:02.656Z,2.30
2023-03-17T18:28:29.857Z,2.30
2023-03-17T18:31:03.825Z,3.10
2023-03-17T18:33:32.764Z,2.53
2023-03-17T18:36:00.330Z,2.90
2023-03-17T18:38:27.506Z,2.53
2023-03-17T18:40:54.605Z,2.53
2023-03-17T18:43:22.375Z,2.63
2023-03-17T18:45:49.907Z,2.30
2023-03-17T18:48:17.164Z,2.03
2023-03-17T18:50:44.554Z,2.20
2023-03-17T18:53:12.550Z,3.33
2023-03-17T18:55:41.575Z,3.07
2023-03-17T18:58:09.067Z,3.20
2023-03-17T19:00:38.293Z,3.70
2023-03-17T19:03:05.459Z,3.30
2023-03-17T19:05:37.655Z,3.10
2023-03-17T19:08:05.436Z,2.93
2023-03-17T19:10:32.958Z,2.60
2023-03-17T19:13:00.564Z,2.67
2023-03-17T19:15:27.975Z,2.33
2023-03-17T19:17:55.460Z,2.27
2023-03-17T19:20:22.585Z,2.70
2023-03-17T19:22:53.476Z,2.50
2023-03-17T19:25:21.657Z,2.70
2023-03-17T19:27:48.916Z,2.47
2023-03-17T19:30:18.665Z,2.53
2023-03-17T19:32:45.841Z,2.13
2023-03-17T19:35:12.984Z,2.50
2023-03-17T19:37:56.844Z,2.50
2023-03-17T19:40:24.028Z,2.03
2023-03-17T19:42:51.433Z,2.27
2023-03-17T19:45:18.721Z,2.00
2023-03-17T19:47:47.389Z,2.43
2023-03-17T19:50:14.893Z,2.17
2023-03-17T19:52:42.037Z,2.20
2023-03-17T19:55:11.009Z,2.37
2023-03-17T19:57:38.223Z,2.63
2023-03-17T20:00:09.025Z,2.43
2023-03-17T20:02:37.337Z,2.50
2023-03-17T20:05:04.971Z,2.67
2023-03-17T20:07:32.998Z,2.10
2023-03-17T20:10:12.364Z,2.63
2023-03-17T20:12:40.679Z,2.27
2023-03-17T20:15:08.685Z,2.53
2023-03-17T20:17:36.789Z,2.40
2023-03-17T20:20:05.021Z,2.40
2023-03-17T20:22:32.602Z,2.03
2023-03-17T20:24:59.838Z,2.50
2023-03-17T20:27:27.766Z,2.20
2023-03-17T20:29:55.758Z,2.10
2023-03-17T20:32:23.957Z,2.80
2023-03-17T20:34:51.073Z,2.70
2023-03-17T20:37:18.264Z,3.10
2023-03-17T20:39:45.729Z,3.53
2023-03-17T20:42:14.855Z,4.00
2023-03-17T20:44:53.293Z,3.57
2023-03-17T20:47:30.303Z,3.30
2023-03-17T20:49:59.004Z,3.00
2023-03-17T20:53:09.560Z,3.23
2023-03-17T20:55:37.710Z,3.40
2023-03-17T20:58:05.138Z,3.60
2023-03-17T21:00:33.027Z,3.50
2023-03-17T21:03:00.746Z,3.50
2023-03-17T21:05:28.817Z,4.30
2023-03-17T21:07:56.832Z,3.63
2023-03-17T21:10:24.133Z,3.50
2023-03-17T21:12:51.295Z,3.50
2023-03-17T21:15:19.138Z,3.20
2023-03-17T21:17:46.285Z,3.30
2023-03-17T21:20:25.618Z,3.67
2023-03-17T21:22:52.794Z,3.53
2023-03-17T21:25:20.232Z,3.63
2023-03-17T21:27:47.376Z,3.50
2023-03-17T21:30:14.772Z,3.57
2023-03-17T21:32:42.379Z,3.77
2023-03-17T21:35:11.481Z,3.83
2023-03-17T21:37:38.895Z,4.33
2023-03-17T21:40:07.272Z,4.13
2023-03-17T21:42:35.094Z,3.47
2023-03-17T21:45:02.860Z,3.07
2023-03-17T21:47:30.397Z,3.47
2023-03-17T21:49:58.857Z,4.30
2023-03-17T21:52:26.510Z,3.33
2023-03-17T21:54:53.625Z,3.70
2023-03-17T21:57:21.047Z,4.00
2023-03-17T21:59:49.326Z,4.10
2023-03-17T22:02:18.098Z,3.67
2023-03-17T22:04:46.951Z,4.00
2023-03-17T22:07:14.368Z,3.93
2023-03-17T22:09:41.937Z,3.73
2023-03-17T22:12:09.666Z,3.90
2023-03-17T22:14:37.493Z,4.17
2023-03-17T22:17:08.392Z,3.67
2023-03-17T22:19:36.075Z,3.87
2023-03-17T22:22:03.931Z,4.67
2023-03-17T22:24:32.692Z,4.53
2023-03-17T22:27:00.093Z,4.57
2023-03-17T22:29:27.616Z,4.57
2023-03-17T22:31:55.037Z,4.50
2023-03-17T22:34:26.022Z,4.40
2023-03-17T22:36:53.301Z,3.97
2023-03-17T22:39:21.118Z,4.67
2023-03-17T22:41:48.523Z,4.37
2023-03-17T22:44:15.997Z,4.47
2023-03-17T22:46:43.246Z,3.90
2023-03-17T22:49:10.651Z,4.67
2023-03-17T22:51:38.223Z,4.03
2023-03-17T22:54:05.656Z,4.60
2023-03-17T22:56:33.214Z,5.20
2023-03-17T22:59:00.562Z,4.53
2023-03-17T23:01:27.883Z,4.10
2023-03-17T23:03:55.730Z,4.10
2023-03-17T23:06:23.358Z,4.20
2023-03-17T23:08:51.255Z,4.47
2023-03-17T23:11:22.571Z,4.00
2023-03-17T23:13:51.491Z,5.20
2023-03-17T23:16:20.618Z,4.90
2023-03-17T23:18:48.280Z,4.57
2023-03-17T23:21:28.057Z,4.67
2023-03-17T23:23:55.787Z,4.27
2023-03-17T23:26:37.249Z,5.27
2023-03-17T23:29:07.133Z,4.53
2023-03-17T23:31:35.117Z,5.50
2023-03-17T23:34:03.767Z,5.10
2023-03-17T23:36:31.291Z,5.07
2023-03-17T23:38:58.369Z,5.30
2023-03-17T23:41:26.147Z,5.93
2023-03-17T23:43:53.531Z,4.93
2023-03-17T23:46:20.928Z,4.60
2023-03-17T23:48:49.637Z,5.07
2023-03-17T23:51:17.904Z,4.70
2023-03-17T23:53:46.726Z,5.00
2023-03-17T23:56:14.207Z,5.57
2023-03-17T23:58:43.425Z,4.93
